sensor_id;sensor_type;location;lat;lon;timestamp;P1;durP1;ratioP1;P2;durP2;ratioP2
59145;SDS011;44928;53.074;6.646;2023-07-09T00:01:19;11.00;;;6.65;;
59145;SDS011;44928;53.074;6.646;2023-07-09T00:03:45;12.57;;;6.55;;
59145;SDS011;44928;53.074;6.646;2023-07-09T00:06:16;11.52;;;6.45;;
59145;SDS011;44928;53.074;6.646;2023-07-09T00:08:43;10.40;;;6.53;;
59145;SDS011;44928;53.074;6.646;2023-07-09T00:11:12;10.20;;;6.50;;
59145;SDS011;44928;53.074;6.646;2023-07-09T00:13:39;11.18;;;6.32;;
59145;SDS011;44928;53.074;6.646;2023-07-09T00:16:07;11.27;;;6.57;;
59145;SDS011;44928;53.074;6.646;2023-07-09T00:18:42;10.35;;;6.22;;
59145;SDS011;44928;53.074;6.646;2023-07-09T00:21:08;9.98;;;5.82;;
59145;SDS011;44928;53.074;6.646;2023-07-09T00:23:33;12.15;;;6.50;;
59145;SDS011;44928;53.074;6.646;2023-07-09T00:25:59;11.77;;;6.57;;
59145;SDS011;44928;53.074;6.646;2023-07-09T00:28:28;11.60;;;6.50;;
59145;SDS011;44928;53.074;6.646;2023-07-09T00:30:54;10.45;;;6.28;;
59145;SDS011;44928;53.074;6.646;2023-07-09T00:33:19;11.75;;;6.30;;
59145;SDS011;44928;53.074;6.646;2023-07-09T00:35:45;10.65;;;6.38;;
59145;SDS011;44928;53.074;6.646;2023-07-09T00:38:22;13.02;;;6.55;;
59145;SDS011;44928;53.074;6.646;2023-07-09T00:41:00;10.25;;;5.88;;
59145;SDS011;44928;53.074;6.646;2023-07-09T00:43:30;11.82;;;7.05;;
59145;SDS011;44928;53.074;6.646;2023-07-09T00:46:13;13.00;;;6.35;;
59145;SDS011;44928;53.074;6.646;2023-07-09T00:49:03;10.63;;;6.53;;
59145;SDS011;44928;53.074;6.646;2023-07-09T00:51:33;12.10;;;7.13;;
59145;SDS011;44928;53.074;6.646;2023-07-09T00:54:09;12.32;;;6.40;;
59145;SDS011;44928;53.074;6.646;2023-07-09T00:56:40;13.02;;;6.43;;
59145;SDS011;44928;53.074;6.646;2023-07-09T00:59:15;12.52;;;6.88;;
59145;SDS011;44928;53.074;6.646;2023-07-09T01:01:45;11.90;;;6.28;;
59145;SDS011;44928;53.074;6.646;2023-07-09T01:04:15;11.38;;;6.38;;
59145;SDS011;44928;53.074;6.646;2023-07-09T01:06:47;10.88;;;6.40;;
59145;SDS011;44928;53.074;6.646;2023-07-09T01:09:16;10.52;;;6.07;;
59145;SDS011;44928;53.074;6.646;2023-07-09T01:11:43;10.18;;;5.95;;
59145;SDS011;44928;53.074;6.646;2023-07-09T01:14:10;12.02;;;6.68;;
59145;SDS011;44928;53.074;6.646;2023-07-09T01:16:58;10.13;;;6.07;;
59145;SDS011;44928;53.074;6.646;2023-07-09T01:19:29;12.13;;;6.63;;
59145;SDS011;44928;53.074;6.646;2023-07-09T01:22:08;10.65;;;6.28;;
59145;SDS011;44928;53.074;6.646;2023-07-09T01:27:34;9.95;;;6.35;;
59145;SDS011;44928;53.074;6.646;2023-07-09T01:30:06;12.43;;;6.25;;
59145;SDS011;44928;53.074;6.646;2023-07-09T01:32:34;12.63;;;6.90;;
59145;SDS011;44928;53.074;6.646;2023-07-09T01:35:03;12.10;;;6.80;;
59145;SDS011;44928;53.074;6.646;2023-07-09T01:37:49;12.25;;;6.82;;
59145;SDS011;44928;53.074;6.646;2023-07-09T01:40:16;11.52;;;6.20;;
59145;SDS011;44928;53.074;6.646;2023-07-09T01:42:44;10.27;;;6.38;;
59145;SDS011;44928;53.074;6.646;2023-07-09T01:45:11;9.90;;;6.18;;
59145;SDS011;44928;53.074;6.646;2023-07-09T01:47:37;10.77;;;6.70;;
59145;SDS011;44928;53.074;6.646;2023-07-09T01:50:05;10.38;;;6.55;;
59145;SDS011;44928;53.074;6.646;2023-07-09T01:52:32;9.80;;;6.30;;
59145;SDS011;44928;53.074;6.646;2023-07-09T01:54:59;12.55;;;7.13;;
59145;SDS011;44928;53.074;6.646;2023-07-09T01:57:28;12.05;;;6.80;;
59145;SDS011;44928;53.074;6.646;2023-07-09T02:00:03;10.25;;;6.68;;
59145;SDS011;44928;53.074;6.646;2023-07-09T02:02:34;13.48;;;6.97;;
59145;SDS011;44928;53.074;6.646;2023-07-09T02:05:01;12.38;;;7.05;;
59145;SDS011;44928;53.074;6.646;2023-07-09T02:07:27;10.55;;;6.28;;
59145;SDS011;44928;53.074;6.646;2023-07-09T02:09:53;11.07;;;6.70;;
59145;SDS011;44928;53.074;6.646;2023-07-09T02:12:19;11.02;;;6.32;;
59145;SDS011;44928;53.074;6.646;2023-07-09T02:14:45;10.23;;;6.57;;
59145;SDS011;44928;53.074;6.646;2023-07-09T02:17:11;9.98;;;6.32;;
59145;SDS011;44928;53.074;6.646;2023-07-09T02:19:39;11.32;;;6.60;;
59145;SDS011;44928;53.074;6.646;2023-07-09T02:22:05;10.55;;;6.72;;
59145;SDS011;44928;53.074;6.646;2023-07-09T02:24:31;10.90;;;6.70;;
59145;SDS011;44928;53.074;6.646;2023-07-09T02:26:58;10.68;;;6.40;;
59145;SDS011;44928;53.074;6.646;2023-07-09T02:29:25;11.05;;;7.03;;
59145;SDS011;44928;53.074;6.646;2023-07-09T02:31:54;11.38;;;6.85;;
59145;SDS011;44928;53.074;6.646;2023-07-09T02:34:21;10.93;;;6.53;;
59145;SDS011;44928;53.074;6.646;2023-07-09T02:36:53;10.40;;;6.15;;
59145;SDS011;44928;53.074;6.646;2023-07-09T02:39:21;11.15;;;6.80;;
59145;SDS011;44928;53.074;6.646;2023-07-09T02:41:47;10.70;;;6.07;;
59145;SDS011;44928;53.074;6.646;2023-07-09T02:44:14;11.13;;;6.30;;
59145;SDS011;44928;53.074;6.646;2023-07-09T02:46:40;11.68;;;6.75;;
59145;SDS011;44928;53.074;6.646;2023-07-09T02:49:07;11.48;;;6.60;;
59145;SDS011;44928;53.074;6.646;2023-07-09T02:51:35;11.00;;;6.13;;
59145;SDS011;44928;53.074;6.646;2023-07-09T02:54:02;10.48;;;6.28;;
59145;SDS011;44928;53.074;6.646;2023-07-09T02:56:28;12.63;;;6.55;;
59145;SDS011;44928;53.074;6.646;2023-07-09T02:58:55;10.02;;;6.63;;
59145;SDS011;44928;53.074;6.646;2023-07-09T03:01:21;9.50;;;5.90;;
59145;SDS011;44928;53.074;6.646;2023-07-09T03:03:50;9.80;;;6.43;;
59145;SDS011;44928;53.074;6.646;2023-07-09T03:06:18;12.82;;;6.07;;
59145;SDS011;44928;53.074;6.646;2023-07-09T03:08:45;10.98;;;6.30;;
59145;SDS011;44928;53.074;6.646;2023-07-09T03:11:11;10.60;;;6.57;;
59145;SDS011;44928;53.074;6.646;2023-07-09T03:13:40;11.23;;;6.63;;
59145;SDS011;44928;53.074;6.646;2023-07-09T03:16:05;9.77;;;6.47;;
59145;SDS011;44928;53.074;6.646;2023-07-09T03:18:31;11.20;;;6.95;;
59145;SDS011;44928;53.074;6.646;2023-07-09T03:20:57;11.73;;;6.13;;
59145;SDS011;44928;53.074;6.646;2023-07-09T03:23:24;10.45;;;6.40;;
59145;SDS011;44928;53.074;6.646;2023-07-09T03:25:50;11.57;;;6.72;;
59145;SDS011;44928;53.074;6.646;2023-07-09T03:28:16;11.05;;;6.53;;
59145;SDS011;44928;53.074;6.646;2023-07-09T03:30:42;10.88;;;6.82;;
59145;SDS011;44928;53.074;6.646;2023-07-09T03:33:09;11.10;;;6.22;;
59145;SDS011;44928;53.074;6.646;2023-07-09T03:35:36;11.60;;;6.40;;
59145;SDS011;44928;53.074;6.646;2023-07-09T03:38:04;9.52;;;5.68;;
59145;SDS011;44928;53.074;6.646;2023-07-09T03:40:33;11.37;;;6.83;;
59145;SDS011;44928;53.074;6.646;2023-07-09T03:42:59;12.38;;;6.35;;
59145;SDS011;44928;53.074;6.646;2023-07-09T03:45:25;10.75;;;6.50;;
59145;SDS011;44928;53.074;6.646;2023-07-09T03:47:52;11.48;;;6.57;;
59145;SDS011;44928;53.074;6.646;2023-07-09T03:50:17;9.88;;;6.05;;
59145;SDS011;44928;53.074;6.646;2023-07-09T03:52:43;9.48;;;5.88;;
59145;SDS011;44928;53.074;6.646;2023-07-09T03:55:09;11.32;;;6.70;;
59145;SDS011;44928;53.074;6.646;2023-07-09T03:57:36;11.98;;;6.78;;
59145;SDS011;44928;53.074;6.646;2023-07-09T04:00:02;10.95;;;6.18;;
59145;SDS011;44928;53.074;6.646;2023-07-09T04:02:29;9.95;;;6.70;;
59145;SDS011;44928;53.074;6.646;2023-07-09T04:04:56;10.05;;;6.47;;
59145;SDS011;44928;53.074;6.646;2023-07-09T04:07:22;10.63;;;5.78;;
59145;SDS011;44928;53.074;6.646;2023-07-09T04:09:48;10.52;;;6.65;;
59145;SDS011;44928;53.074;6.646;2023-07-09T04:12:14;10.35;;;6.38;;
59145;SDS011;44928;53.074;6.646;2023-07-09T04:14:40;10.98;;;6.38;;
59145;SDS011;44928;53.074;6.646;2023-07-09T04:17:06;11.30;;;6.00;;
59145;SDS011;44928;53.074;6.646;2023-07-09T04:19:32;12.32;;;7.18;;
59145;SDS011;44928;53.074;6.646;2023-07-09T04:21:58;10.10;;;6.40;;
59145;SDS011;44928;53.074;6.646;2023-07-09T04:24:23;10.40;;;6.07;;
59145;SDS011;44928;53.074;6.646;2023-07-09T04:26:49;10.93;;;6.20;;
59145;SDS011;44928;53.074;6.646;2023-07-09T04:29:24;12.20;;;6.93;;
59145;SDS011;44928;53.074;6.646;2023-07-09T04:31:50;9.88;;;6.18;;
59145;SDS011;44928;53.074;6.646;2023-07-09T04:34:16;9.95;;;5.90;;
59145;SDS011;44928;53.074;6.646;2023-07-09T04:36:42;9.38;;;6.07;;
59145;SDS011;44928;53.074;6.646;2023-07-09T04:39:08;12.65;;;6.38;;
59145;SDS011;44928;53.074;6.646;2023-07-09T04:41:34;10.75;;;6.22;;
59145;SDS011;44928;53.074;6.646;2023-07-09T04:44:00;10.98;;;6.05;;
59145;SDS011;44928;53.074;6.646;2023-07-09T04:46:26;13.02;;;6.72;;
59145;SDS011;44928;53.074;6.646;2023-07-09T04:48:51;10.82;;;6.30;;
59145;SDS011;44928;53.074;6.646;2023-07-09T04:51:17;10.20;;;6.68;;
59145;SDS011;44928;53.074;6.646;2023-07-09T04:53:43;9.60;;;5.93;;
59145;SDS011;44928;53.074;6.646;2023-07-09T04:56:10;10.25;;;6.35;;
59145;SDS011;44928;53.074;6.646;2023-07-09T04:58:36;10.68;;;6.13;;
59145;SDS011;44928;53.074;6.646;2023-07-09T05:01:02;9.63;;;5.55;;
59145;SDS011;44928;53.074;6.646;2023-07-09T05:03:28;10.25;;;6.18;;
59145;SDS011;44928;53.074;6.646;2023-07-09T05:05:54;11.95;;;7.18;;
59145;SDS011;44928;53.074;6.646;2023-07-09T05:08:21;9.82;;;6.38;;
59145;SDS011;44928;53.074;6.646;2023-07-09T05:10:49;11.77;;;6.88;;
59145;SDS011;44928;53.074;6.646;2023-07-09T05:13:17;11.50;;;5.85;;
59145;SDS011;44928;53.074;6.646;2023-07-09T05:15:44;10.23;;;5.78;;
59145;SDS011;44928;53.074;6.646;2023-07-09T05:18:12;10.45;;;6.13;;
59145;SDS011;44928;53.074;6.646;2023-07-09T05:20:39;11.18;;;6.20;;
59145;SDS011;44928;53.074;6.646;2023-07-09T05:23:06;9.85;;;5.80;;
59145;SDS011;44928;53.074;6.646;2023-07-09T05:25:33;10.63;;;5.75;;
59145;SDS011;44928;53.074;6.646;2023-07-09T05:27:58;11.75;;;6.28;;
59145;SDS011;44928;53.074;6.646;2023-07-09T05:30:25;10.35;;;6.22;;
59145;SDS011;44928;53.074;6.646;2023-07-09T05:32:51;10.88;;;6.80;;
59145;SDS011;44928;53.074;6.646;2023-07-09T05:35:18;10.23;;;6.38;;
59145;SDS011;44928;53.074;6.646;2023-07-09T05:37:44;9.13;;;5.82;;
59145;SDS011;44928;53.074;6.646;2023-07-09T05:40:10;10.32;;;5.80;;
59145;SDS011;44928;53.074;6.646;2023-07-09T05:42:36;11.68;;;6.53;;
59145;SDS011;44928;53.074;6.646;2023-07-09T05:45:02;13.00;;;7.28;;
59145;SDS011;44928;53.074;6.646;2023-07-09T05:47:28;11.43;;;6.03;;
59145;SDS011;44928;53.074;6.646;2023-07-09T05:49:54;10.65;;;6.75;;
59145;SDS011;44928;53.074;6.646;2023-07-09T05:52:20;11.05;;;6.28;;
59145;SDS011;44928;53.074;6.646;2023-07-09T05:54:50;10.32;;;5.60;;
59145;SDS011;44928;53.074;6.646;2023-07-09T05:57:18;10.98;;;6.18;;
59145;SDS011;44928;53.074;6.646;2023-07-09T05:59:44;11.40;;;6.65;;
59145;SDS011;44928;53.074;6.646;2023-07-09T06:02:10;10.23;;;6.05;;
59145;SDS011;44928;53.074;6.646;2023-07-09T06:04:37;12.20;;;7.50;;
59145;SDS011;44928;53.074;6.646;2023-07-09T06:07:04;10.60;;;5.80;;
59145;SDS011;44928;53.074;6.646;2023-07-09T06:09:30;12.35;;;6.68;;
59145;SDS011;44928;53.074;6.646;2023-07-09T06:11:57;11.90;;;6.72;;
59145;SDS011;44928;53.074;6.646;2023-07-09T06:14:23;11.90;;;6.47;;
59145;SDS011;44928;53.074;6.646;2023-07-09T06:16:49;11.55;;;6.32;;
59145;SDS011;44928;53.074;6.646;2023-07-09T06:19:15;10.38;;;6.05;;
59145;SDS011;44928;53.074;6.646;2023-07-09T06:21:41;11.15;;;6.70;;
59145;SDS011;44928;53.074;6.646;2023-07-09T06:24:07;10.70;;;6.80;;
59145;SDS011;44928;53.074;6.646;2023-07-09T06:26:34;12.38;;;6.93;;
59145;SDS011;44928;53.074;6.646;2023-07-09T06:29:00;10.45;;;6.65;;
59145;SDS011;44928;53.074;6.646;2023-07-09T06:31:26;13.90;;;7.32;;
59145;SDS011;44928;53.074;6.646;2023-07-09T06:33:52;11.88;;;6.30;;
59145;SDS011;44928;53.074;6.646;2023-07-09T06:36:18;10.65;;;6.47;;
59145;SDS011;44928;53.074;6.646;2023-07-09T06:38:44;15.15;;;7.30;;
59145;SDS011;44928;53.074;6.646;2023-07-09T06:41:11;13.77;;;6.88;;
59145;SDS011;44928;53.074;6.646;2023-07-09T06:43:39;11.82;;;6.75;;
59145;SDS011;44928;53.074;6.646;2023-07-09T06:46:05;12.38;;;8.18;;
59145;SDS011;44928;53.074;6.646;2023-07-09T06:48:34;14.05;;;8.13;;
59145;SDS011;44928;53.074;6.646;2023-07-09T06:51:00;14.35;;;7.97;;
59145;SDS011;44928;53.074;6.646;2023-07-09T06:53:26;11.55;;;7.30;;
59145;SDS011;44928;53.074;6.646;2023-07-09T06:55:53;12.45;;;7.50;;
59145;SDS011;44928;53.074;6.646;2023-07-09T06:58:23;13.00;;;7.18;;
59145;SDS011;44928;53.074;6.646;2023-07-09T07:00:50;15.32;;;9.15;;
59145;SDS011;44928;53.074;6.646;2023-07-09T07:03:16;12.57;;;7.72;;
59145;SDS011;44928;53.074;6.646;2023-07-09T07:05:43;14.52;;;7.38;;
59145;SDS011;44928;53.074;6.646;2023-07-09T07:08:10;12.27;;;7.40;;
59145;SDS011;44928;53.074;6.646;2023-07-09T07:10:36;12.45;;;7.40;;
59145;SDS011;44928;53.074;6.646;2023-07-09T07:13:02;13.15;;;7.47;;
59145;SDS011;44928;53.074;6.646;2023-07-09T07:15:27;15.15;;;7.75;;
59145;SDS011;44928;53.074;6.646;2023-07-09T07:17:53;12.20;;;7.50;;
59145;SDS011;44928;53.074;6.646;2023-07-09T07:20:19;12.85;;;7.50;;
59145;SDS011;44928;53.074;6.646;2023-07-09T07:22:45;12.77;;;7.45;;
59145;SDS011;44928;53.074;6.646;2023-07-09T07:25:12;12.88;;;7.40;;
59145;SDS011;44928;53.074;6.646;2023-07-09T07:27:38;13.73;;;8.20;;
59145;SDS011;44928;53.074;6.646;2023-07-09T07:30:04;13.38;;;8.13;;
59145;SDS011;44928;53.074;6.646;2023-07-09T07:32:34;12.80;;;7.60;;
59145;SDS011;44928;53.074;6.646;2023-07-09T07:35:01;12.93;;;7.25;;
59145;SDS011;44928;53.074;6.646;2023-07-09T07:37:27;14.63;;;7.95;;
59145;SDS011;44928;53.074;6.646;2023-07-09T07:39:53;12.65;;;7.68;;
59145;SDS011;44928;53.074;6.646;2023-07-09T07:42:19;12.88;;;7.60;;
59145;SDS011;44928;53.074;6.646;2023-07-09T07:44:44;12.05;;;7.07;;
59145;SDS011;44928;53.074;6.646;2023-07-09T07:47:10;13.07;;;7.35;;
59145;SDS011;44928;53.074;6.646;2023-07-09T07:49:37;14.10;;;7.50;;
59145;SDS011;44928;53.074;6.646;2023-07-09T07:52:03;12.95;;;6.90;;
59145;SDS011;44928;53.074;6.646;2023-07-09T07:54:29;13.45;;;7.57;;
59145;SDS011;44928;53.074;6.646;2023-07-09T07:56:57;12.35;;;7.63;;
59145;SDS011;44928;53.074;6.646;2023-07-09T07:59:23;13.38;;;7.78;;
59145;SDS011;44928;53.074;6.646;2023-07-09T08:01:49;11.80;;;7.55;;
59145;SDS011;44928;53.074;6.646;2023-07-09T08:04:15;12.23;;;7.60;;
59145;SDS011;44928;53.074;6.646;2023-07-09T08:06:41;13.55;;;7.20;;
59145;SDS011;44928;53.074;6.646;2023-07-09T08:09:07;11.85;;;7.03;;
59145;SDS011;44928;53.074;6.646;2023-07-09T08:11:33;15.13;;;8.00;;
59145;SDS011;44928;53.074;6.646;2023-07-09T08:13:59;13.48;;;8.13;;
59145;SDS011;44928;53.074;6.646;2023-07-09T08:16:25;12.57;;;8.35;;
59145;SDS011;44928;53.074;6.646;2023-07-09T08:18:52;12.98;;;7.75;;
59145;SDS011;44928;53.074;6.646;2023-07-09T08:21:18;11.65;;;7.43;;
59145;SDS011;44928;53.074;6.646;2023-07-09T08:23:47;12.48;;;6.85;;
59145;SDS011;44928;53.074;6.646;2023-07-09T08:26:13;11.43;;;6.68;;
59145;SDS011;44928;53.074;6.646;2023-07-09T08:28:39;15.25;;;7.28;;
59145;SDS011;44928;53.074;6.646;2023-07-09T08:31:04;11.98;;;6.60;;
59145;SDS011;44928;53.074;6.646;2023-07-09T08:33:30;11.30;;;6.53;;
59145;SDS011;44928;53.074;6.646;2023-07-09T08:35:56;14.18;;;6.50;;
59145;SDS011;44928;53.074;6.646;2023-07-09T08:38:22;11.63;;;6.47;;
59145;SDS011;44928;53.074;6.646;2023-07-09T08:40:50;11.07;;;6.65;;
59145;SDS011;44928;53.074;6.646;2023-07-09T08:43:34;13.43;;;7.55;;
59145;SDS011;44928;53.074;6.646;2023-07-09T08:46:54;13.18;;;7.15;;
59145;SDS011;44928;53.074;6.646;2023-07-09T08:49:18;13.27;;;7.13;;
59145;SDS011;44928;53.074;6.646;2023-07-09T08:51:48;12.73;;;6.68;;
59145;SDS011;44928;53.074;6.646;2023-07-09T08:54:20;11.20;;;6.80;;
59145;SDS011;44928;53.074;6.646;2023-07-09T08:56:59;14.25;;;7.13;;
59145;SDS011;44928;53.074;6.646;2023-07-09T08:59:33;11.30;;;6.80;;
59145;SDS011;44928;53.074;6.646;2023-07-09T09:01:59;11.43;;;6.65;;
59145;SDS011;44928;53.074;6.646;2023-07-09T09:04:29;11.98;;;7.60;;
59145;SDS011;44928;53.074;6.646;2023-07-09T09:09:58;14.20;;;6.80;;
59145;SDS011;44928;53.074;6.646;2023-07-09T09:12:28;13.40;;;6.53;;
59145;SDS011;44928;53.074;6.646;2023-07-09T09:14:58;11.50;;;6.93;;
59145;SDS011;44928;53.074;6.646;2023-07-09T09:17:28;13.05;;;6.90;;
59145;SDS011;44928;53.074;6.646;2023-07-09T09:19:56;13.90;;;6.90;;
59145;SDS011;44928;53.074;6.646;2023-07-09T09:22:33;12.10;;;6.78;;
59145;SDS011;44928;53.074;6.646;2023-07-09T09:25:28;13.82;;;7.20;;
59145;SDS011;44928;53.074;6.646;2023-07-09T09:27:56;13.68;;;7.63;;
59145;SDS011;44928;53.074;6.646;2023-07-09T09:30:24;11.60;;;6.13;;
59145;SDS011;44928;53.074;6.646;2023-07-09T09:32:55;16.55;;;6.18;;
59145;SDS011;44928;53.074;6.646;2023-07-09T09:35:26;11.68;;;6.72;;
59145;SDS011;44928;53.074;6.646;2023-07-09T09:37:55;11.68;;;6.63;;
59145;SDS011;44928;53.074;6.646;2023-07-09T09:40:22;12.65;;;6.85;;
59145;SDS011;44928;53.074;6.646;2023-07-09T09:42:50;12.93;;;7.32;;
59145;SDS011;44928;53.074;6.646;2023-07-09T09:45:20;12.63;;;6.63;;
59145;SDS011;44928;53.074;6.646;2023-07-09T09:47:47;12.68;;;6.50;;
59145;SDS011;44928;53.074;6.646;2023-07-09T09:50:17;12.77;;;6.63;;
59145;SDS011;44928;53.074;6.646;2023-07-09T09:52:47;9.43;;;5.68;;
59145;SDS011;44928;53.074;6.646;2023-07-09T09:55:22;13.10;;;6.60;;
59145;SDS011;44928;53.074;6.646;2023-07-09T09:57:50;12.35;;;6.95;;
59145;SDS011;44928;53.074;6.646;2023-07-09T10:00:19;12.52;;;6.00;;
59145;SDS011;44928;53.074;6.646;2023-07-09T10:02:50;10.93;;;6.60;;
59145;SDS011;44928;53.074;6.646;2023-07-09T10:05:24;11.98;;;7.13;;
59145;SDS011;44928;53.074;6.646;2023-07-09T10:08:13;11.95;;;6.53;;
59145;SDS011;44928;53.074;6.646;2023-07-09T10:10:46;13.05;;;7.22;;
59145;SDS011;44928;53.074;6.646;2023-07-09T10:13:45;11.38;;;6.72;;
59145;SDS011;44928;53.074;6.646;2023-07-09T10:16:25;13.43;;;6.75;;
59145;SDS011;44928;53.074;6.646;2023-07-09T10:21:57;12.05;;;6.75;;
59145;SDS011;44928;53.074;6.646;2023-07-09T10:27:18;12.75;;;7.20;;
59145;SDS011;44928;53.074;6.646;2023-07-09T10:33:10;13.38;;;6.57;;
59145;SDS011;44928;53.074;6.646;2023-07-09T10:40:58;15.10;;;6.90;;
59145;SDS011;44928;53.074;6.646;2023-07-09T10:43:48;14.23;;;6.60;;
59145;SDS011;44928;53.074;6.646;2023-07-09T10:46:15;13.10;;;6.35;;
59145;SDS011;44928;53.074;6.646;2023-07-09T10:48:44;13.77;;;6.70;;
59145;SDS011;44928;53.074;6.646;2023-07-09T10:51:33;12.70;;;6.72;;
59145;SDS011;44928;53.074;6.646;2023-07-09T10:57:11;11.55;;;6.47;;
59145;SDS011;44928;53.074;6.646;2023-07-09T10:59:58;12.02;;;6.45;;
59145;SDS011;44928;53.074;6.646;2023-07-09T11:02:33;13.15;;;6.95;;
59145;SDS011;44928;53.074;6.646;2023-07-09T11:05:03;11.48;;;5.80;;
59145;SDS011;44928;53.074;6.646;2023-07-09T11:10:02;14.27;;;6.70;;
59145;SDS011;44928;53.074;6.646;2023-07-09T11:12:34;16.73;;;6.38;;
59145;SDS011;44928;53.074;6.646;2023-07-09T11:15:05;11.43;;;6.60;;
59145;SDS011;44928;53.074;6.646;2023-07-09T11:17:38;13.23;;;6.20;;
59145;SDS011;44928;53.074;6.646;2023-07-09T11:20:16;13.68;;;6.10;;
59145;SDS011;44928;53.074;6.646;2023-07-09T11:23:03;10.07;;;5.80;;
59145;SDS011;44928;53.074;6.646;2023-07-09T11:25:47;12.68;;;6.63;;
59145;SDS011;44928;53.074;6.646;2023-07-09T11:28:32;10.60;;;5.97;;
59145;SDS011;44928;53.074;6.646;2023-07-09T11:31:05;11.55;;;5.57;;
59145;SDS011;44928;53.074;6.646;2023-07-09T11:33:33;10.45;;;6.15;;
59145;SDS011;44928;53.074;6.646;2023-07-09T11:36:12;10.75;;;6.00;;
59145;SDS011;44928;53.074;6.646;2023-07-09T11:38:48;11.85;;;6.80;;
59145;SDS011;44928;53.074;6.646;2023-07-09T11:49:27;12.45;;;6.68;;
59145;SDS011;44928;53.074;6.646;2023-07-09T11:52:00;10.40;;;5.90;;
59145;SDS011;44928;53.074;6.646;2023-07-09T11:54:33;12.38;;;5.57;;
59145;SDS011;44928;53.074;6.646;2023-07-09T11:57:00;13.05;;;6.13;;
59145;SDS011;44928;53.074;6.646;2023-07-09T11:59:28;12.65;;;6.50;;
59145;SDS011;44928;53.074;6.646;2023-07-09T12:01:54;13.68;;;6.35;;
59145;SDS011;44928;53.074;6.646;2023-07-09T12:04:25;12.55;;;6.20;;
59145;SDS011;44928;53.074;6.646;2023-07-09T12:06:57;12.05;;;6.40;;
59145;SDS011;44928;53.074;6.646;2023-07-09T12:09:29;12.15;;;6.15;;
59145;SDS011;44928;53.074;6.646;2023-07-09T12:11:57;11.30;;;5.90;;
59145;SDS011;44928;53.074;6.646;2023-07-09T12:14:22;11.85;;;6.07;;
59145;SDS011;44928;53.074;6.646;2023-07-09T12:16:50;11.50;;;6.72;;
59145;SDS011;44928;53.074;6.646;2023-07-09T12:19:18;9.40;;;5.82;;
59145;SDS011;44928;53.074;6.646;2023-07-09T12:21:46;12.38;;;6.25;;
59145;SDS011;44928;53.074;6.646;2023-07-09T12:24:17;9.60;;;6.28;;
59145;SDS011;44928;53.074;6.646;2023-07-09T12:26:47;12.05;;;6.18;;
59145;SDS011;44928;53.074;6.646;2023-07-09T12:29:27;9.75;;;6.00;;
59145;SDS011;44928;53.074;6.646;2023-07-09T12:31:57;11.57;;;5.80;;
59145;SDS011;44928;53.074;6.646;2023-07-09T12:36:51;11.27;;;5.70;;
59145;SDS011;44928;53.074;6.646;2023-07-09T12:39:23;10.07;;;6.40;;
59145;SDS011;44928;53.074;6.646;2023-07-09T12:41:51;11.43;;;5.50;;
59145;SDS011;44928;53.074;6.646;2023-07-09T12:44:21;13.65;;;6.00;;
59145;SDS011;44928;53.074;6.646;2023-07-09T12:46:48;11.27;;;5.68;;
59145;SDS011;44928;53.074;6.646;2023-07-09T12:49:28;12.48;;;6.43;;
59145;SDS011;44928;53.074;6.646;2023-07-09T12:51:57;11.27;;;5.80;;
59145;SDS011;44928;53.074;6.646;2023-07-09T12:54:24;12.57;;;6.35;;
59145;SDS011;44928;53.074;6.646;2023-07-09T12:56:53;11.18;;;5.78;;
59145;SDS011;44928;53.074;6.646;2023-07-09T12:59:21;12.68;;;6.40;;
59145;SDS011;44928;53.074;6.646;2023-07-09T13:02:37;11.63;;;6.00;;
59145;SDS011;44928;53.074;6.646;2023-07-09T13:04:50;10.77;;;6.10;;
59145;SDS011;44928;53.074;6.646;2023-07-09T13:07:30;12.30;;;6.22;;
59145;SDS011;44928;53.074;6.646;2023-07-09T13:10:03;11.75;;;5.45;;
59145;SDS011;44928;53.074;6.646;2023-07-09T13:12:32;11.43;;;5.88;;
59145;SDS011;44928;53.074;6.646;2023-07-09T13:14:58;9.65;;;5.63;;
59145;SDS011;44928;53.074;6.646;2023-07-09T13:17:27;10.40;;;5.20;;
59145;SDS011;44928;53.074;6.646;2023-07-09T13:19:57;10.95;;;5.63;;
59145;SDS011;44928;53.074;6.646;2023-07-09T13:22:23;9.80;;;6.03;;
59145;SDS011;44928;53.074;6.646;2023-07-09T13:24:50;12.23;;;5.97;;
59145;SDS011;44928;53.074;6.646;2023-07-09T13:27:16;13.93;;;6.45;;
59145;SDS011;44928;53.074;6.646;2023-07-09T13:29:42;9.80;;;5.63;;
59145;SDS011;44928;53.074;6.646;2023-07-09T13:32:11;13.05;;;5.90;;
59145;SDS011;44928;53.074;6.646;2023-07-09T13:34:38;12.52;;;5.22;;
59145;SDS011;44928;53.074;6.646;2023-07-09T13:37:05;8.52;;;4.82;;
59145;SDS011;44928;53.074;6.646;2023-07-09T13:39:38;9.93;;;5.00;;
59145;SDS011;44928;53.074;6.646;2023-07-09T13:42:04;9.90;;;4.80;;
59145;SDS011;44928;53.074;6.646;2023-07-09T13:44:34;9.20;;;5.13;;
59145;SDS011;44928;53.074;6.646;2023-07-09T13:47:01;8.93;;;5.22;;
59145;SDS011;44928;53.074;6.646;2023-07-09T13:49:27;13.32;;;5.43;;
59145;SDS011;44928;53.074;6.646;2023-07-09T13:51:54;9.95;;;4.97;;
59145;SDS011;44928;53.074;6.646;2023-07-09T13:54:23;11.20;;;5.30;;
59145;SDS011;44928;53.074;6.646;2023-07-09T13:57:07;11.82;;;5.90;;
59145;SDS011;44928;53.074;6.646;2023-07-09T13:59:38;11.35;;;5.28;;
59145;SDS011;44928;53.074;6.646;2023-07-09T14:02:12;11.48;;;5.70;;
59145;SDS011;44928;53.074;6.646;2023-07-09T14:05:03;10.38;;;5.50;;
59145;SDS011;44928;53.074;6.646;2023-07-09T14:07:32;11.00;;;5.85;;
59145;SDS011;44928;53.074;6.646;2023-07-09T14:10:00;9.70;;;4.88;;
59145;SDS011;44928;53.074;6.646;2023-07-09T14:12:29;8.50;;;4.40;;
59145;SDS011;44928;53.074;6.646;2023-07-09T14:14:56;10.15;;;4.43;;
59145;SDS011;44928;53.074;6.646;2023-07-09T14:17:24;9.97;;;5.20;;
59145;SDS011;44928;53.074;6.646;2023-07-09T14:19:51;11.70;;;5.25;;
59145;SDS011;44928;53.074;6.646;2023-07-09T14:24:50;10.13;;;5.40;;
59145;SDS011;44928;53.074;6.646;2023-07-09T14:27:16;10.85;;;5.68;;
59145;SDS011;44928;53.074;6.646;2023-07-09T14:29:43;13.48;;;5.45;;
59145;SDS011;44928;53.074;6.646;2023-07-09T14:32:24;10.25;;;4.55;;
59145;SDS011;44928;53.074;6.646;2023-07-09T14:35:00;9.32;;;4.65;;
59145;SDS011;44928;53.074;6.646;2023-07-09T14:37:27;11.30;;;4.47;;
59145;SDS011;44928;53.074;6.646;2023-07-09T14:39:54;10.32;;;4.55;;
59145;SDS011;44928;53.074;6.646;2023-07-09T14:42:20;12.00;;;4.60;;
59145;SDS011;44928;53.074;6.646;2023-07-09T14:44:47;10.27;;;4.55;;
59145;SDS011;44928;53.074;6.646;2023-07-09T14:47:15;8.98;;;4.53;;
59145;SDS011;44928;53.074;6.646;2023-07-09T14:49:47;9.27;;;4.60;;
59145;SDS011;44928;53.074;6.646;2023-07-09T14:52:17;10.77;;;4.50;;
59145;SDS011;44928;53.074;6.646;2023-07-09T14:54:49;8.35;;;4.30;;
59145;SDS011;44928;53.074;6.646;2023-07-09T14:57:23;10.18;;;4.75;;
59145;SDS011;44928;53.074;6.646;2023-07-09T14:59:51;9.30;;;4.88;;
59145;SDS011;44928;53.074;6.646;2023-07-09T15:02:22;9.23;;;5.20;;
59145;SDS011;44928;53.074;6.646;2023-07-09T15:04:51;9.75;;;4.60;;
59145;SDS011;44928;53.074;6.646;2023-07-09T15:07:17;10.43;;;5.18;;
59145;SDS011;44928;53.074;6.646;2023-07-09T15:09:42;11.82;;;4.55;;
59145;SDS011;44928;53.074;6.646;2023-07-09T15:12:19;8.95;;;4.88;;
59145;SDS011;44928;53.074;6.646;2023-07-09T15:14:48;10.07;;;4.65;;
59145;SDS011;44928;53.074;6.646;2023-07-09T15:17:14;11.27;;;4.68;;
59145;SDS011;44928;53.074;6.646;2023-07-09T15:19:40;10.10;;;4.43;;
59145;SDS011;44928;53.074;6.646;2023-07-09T15:22:11;14.18;;;5.18;;
59145;SDS011;44928;53.074;6.646;2023-07-09T15:24:49;10.50;;;4.60;;
59145;SDS011;44928;53.074;6.646;2023-07-09T15:27:15;10.70;;;4.30;;